Terminal Aerodrome Forecast
Issued by NWS Pendleton, OR

Home | Current Version | Previous Version | Text Only | Print | Product List | Glossary On
Versions: 1 2 3 4 5 6 7 8 9 10 11 12 13 14
685
FTUS46 KPDT 252323
TAFPDT
TAF
KPDT 252323Z 2600/2624 34009KT P6SM FEW070
     FM260500 22006KT P6SM SKC
     FM261000 15008KT P6SM FEW150
     FM261800 24007KT P6SM FEW070=

USA.gov is the U.S. government's official web portal to all federal, state and local government web resources and services.